Time;durP1;ratioP1;P1;durP2;ratioP2;P2;SDS_P1;SDS_P2;PMS_P1;PMS_P2;Temp;Humidity;BMP_temperature;BMP_pressure;BME280_temperature;BME280_humidity;BME280_pressure;Samples;Min_cycle;Max_cycle;Signal;HPM_P1;HPM_P2
2022/07/27 00:02:20;;;;;;;12.82;8.75;;;;;;;21.77;59.78;94198.50;5000507;28;20264;-75
2022/07/27 00:04:47;;;;;;;11.20;8.32;;;;;;;21.76;59.69;94190.63;5007161;28;20286;-75
2022/07/27 00:07:13;;;;;;;10.30;6.20;;;;;;;21.72;59.65;94174.13;5001506;28;20287;-75
2022/07/27 00:09:40;;;;;;;9.80;5.50;;;;;;;21.76;59.65;94191.41;5004502;28;20201;-75
2022/07/27 00:12:07;;;;;;;10.73;6.45;;;;;;;21.79;59.21;94201.63;5000823;28;20912;-75
2022/07/27 00:14:36;;;;;;;9.10;5.72;;;;;;;21.75;60.11;94205.59;5006742;28;20201;-75
2022/07/27 00:17:02;;;;;;;11.23;6.90;;;;;;;21.80;59.91;94196.91;5001852;28;20236;-75
2022/07/27 00:19:29;;;;;;;9.90;7.93;;;;;;;21.75;59.84;94195.34;4997505;28;20587;-75
2022/07/27 00:21:57;;;;;;;9.85;6.00;;;;;;;21.64;59.90;94205.72;4999680;28;20205;-76
2022/07/27 00:24:24;;;;;;;10.20;6.20;;;;;;;21.55;60.23;94192.41;5004996;28;20627;-75
2022/07/27 00:26:50;;;;;;;9.60;5.93;;;;;;;21.54;61.02;94187.31;5002003;28;20201;-74
2022/07/27 00:29:18;;;;;;;10.85;5.75;;;;;;;21.50;60.39;94197.56;4997341;28;20201;-74
2022/07/27 00:31:46;;;;;;;7.60;5.28;;;;;;;21.27;61.67;94204.47;4999171;28;20703;-74
2022/07/27 00:34:12;;;;;;;10.68;5.82;;;;;;;21.09;62.27;94217.56;4995859;28;20208;-74
2022/07/27 00:36:39;;;;;;;9.45;5.63;;;;;;;21.22;61.40;94213.16;5010325;28;20244;-74
2022/07/27 00:39:06;;;;;;;8.93;5.35;;;;;;;21.22;61.82;94207.66;5010224;28;20201;-74
2022/07/27 00:41:33;;;;;;;8.80;5.28;;;;;;;21.28;61.25;94222.56;5010091;28;20205;-74
2022/07/27 00:44:00;;;;;;;9.93;6.38;;;;;;;21.36;61.38;94228.00;5019405;28;20209;-74
2022/07/27 00:46:28;;;;;;;9.13;6.15;;;;;;;21.22;62.20;94239.91;5013837;28;20216;-74
2022/07/27 00:48:56;;;;;;;9.80;5.80;;;;;;;21.14;61.46;94235.63;5008088;28;20271;-74
2022/07/27 00:51:24;;;;;;;8.90;6.28;;;;;;;21.11;61.92;94239.97;5008006;28;20201;-74
2022/07/27 00:53:52;;;;;;;9.00;6.57;;;;;;;21.00;62.67;94238.47;5001794;28;20619;-75
2022/07/27 00:56:19;;;;;;;8.82;5.95;;;;;;;21.13;62.66;94237.59;5013929;28;20278;-74
2022/07/27 00:58:48;;;;;;;11.02;7.90;;;;;;;21.10;62.41;94229.34;5001824;28;20291;-74
2022/07/27 01:01:17;;;;;;;9.60;6.10;;;;;;;21.02;62.42;94236.91;5014508;28;20228;-74
2022/07/27 01:03:44;;;;;;;9.90;6.20;;;;;;;21.06;62.90;94232.13;5014078;28;21973;-74
2022/07/27 01:06:14;;;;;;;8.30;5.78;;;;;;;20.99;63.22;94232.19;5013996;28;20571;-74
2022/07/27 01:08:41;;;;;;;8.73;6.00;;;;;;;21.03;62.70;94232.19;5005729;28;20221;-75
2022/07/27 01:11:09;;;;;;;8.95;6.10;;;;;;;20.96;63.64;94227.47;5007671;28;20209;-75
2022/07/27 01:13:36;;;;;;;10.52;6.40;;;;;;;21.11;62.85;94231.72;5003560;28;20300;-75
2022/07/27 01:16:05;;;;;;;14.38;5.65;;;;;;;21.03;62.42;94229.41;5014097;28;20299;-74
2022/07/27 01:18:35;;;;;;;9.73;6.38;;;;;;;20.90;62.51;94231.88;5004995;28;20210;-75
2022/07/27 01:21:04;;;;;;;16.52;7.45;;;;;;;20.88;63.81;94237.00;5007747;28;20216;-74
2022/07/27 01:23:33;;;;;;;9.30;6.13;;;;;;;20.98;63.58;94230.63;5004289;28;20213;-76
2022/07/27 01:26:01;;;;;;;9.45;6.07;;;;;;;20.87;64.35;94235.41;4996927;28;20217;-76
2022/07/27 01:28:28;;;;;;;8.75;6.30;;;;;;;20.96;64.31;94233.00;5004993;28;20275;-74
2022/07/27 01:30:55;;;;;;;12.35;6.55;;;;;;;20.97;64.15;94240.06;5000459;28;20205;-74
2022/07/27 01:33:25;;;;;;;12.27;6.75;;;;;;;21.00;64.22;94244.78;5002721;28;20652;-73
2022/07/27 01:35:53;;;;;;;8.45;5.60;;;;;;;21.09;63.66;94247.84;5007475;28;20289;-74
2022/07/27 01:38:21;;;;;;;9.77;5.93;;;;;;;20.84;64.56;94247.22;5006052;28;20873;-74
2022/07/27 01:40:50;;;;;;;10.88;6.97;;;;;;;20.82;64.43;94249.59;5013259;28;20267;-74
2022/07/27 01:43:17;;;;;;;9.25;6.05;;;;;;;20.87;62.39;94251.94;5017779;28;20208;-75
2022/07/27 01:45:44;;;;;;;10.63;6.65;;;;;;;20.82;63.55;94244.88;5013338;28;20197;-75
2022/07/27 01:48:11;;;;;;;11.32;6.65;;;;;;;20.77;63.93;94244.53;5013388;28;20633;-74
2022/07/27 01:50:39;;;;;;;11.95;6.57;;;;;;;20.72;63.87;94245.72;5000173;28;20532;-74
2022/07/27 01:53:06;;;;;;;12.38;6.70;;;;;;;20.68;64.42;94252.44;5012858;28;20212;-75
2022/07/27 01:55:32;;;;;;;10.55;6.20;;;;;;;20.77;63.82;94230.75;5001082;28;20614;-75
2022/07/27 01:58:02;;;;;;;9.57;6.13;;;;;;;20.40;64.78;94243.13;4998646;28;20263;-74
2022/07/27 02:00:30;;;;;;;7.68;5.13;;;;;;;20.30;64.60;94249.41;5004819;28;20320;-75
2022/07/27 02:02:57;;;;;;;9.13;5.47;;;;;;;19.97;65.95;94247.16;5007726;28;20209;-74
2022/07/27 02:05:24;;;;;;;8.80;5.57;;;;;;;19.93;64.79;94249.16;5012883;28;20239;-74
2022/07/27 02:07:51;;;;;;;7.95;5.50;;;;;;;20.02;64.70;94249.50;4999793;28;20213;-74
2022/07/27 02:10:18;;;;;;;9.32;5.43;;;;;;;20.05;64.93;94251.47;5004799;28;20213;-74
2022/07/27 02:12:43;;;;;;;9.63;5.30;;;;;;;20.09;64.97;94244.75;5008420;28;20209;-74
2022/07/27 02:15:15;;;;;;;10.18;5.88;;;;;;;20.05;65.58;94243.22;5013424;28;20205;-74
2022/07/27 02:17:42;;;;;;;10.00;5.68;;;;;;;20.10;64.90;94242.78;4999669;28;20231;-74
2022/07/27 02:20:10;;;;;;;10.45;5.10;;;;;;;20.28;63.30;94242.75;5003481;28;20213;-74
2022/07/27 02:22:38;;;;;;;6.78;4.78;;;;;;;20.48;61.38;94247.41;5005999;28;20252;-76
2022/07/27 02:25:06;;;;;;;5.00;3.67;;;;;;;20.78;59.14;94248.81;5003599;28;20205;-75
2022/07/27 02:27:33;;;;;;;6.50;4.65;;;;;;;20.96;58.27;94232.22;4996469;28;20205;-77
2022/07/27 02:30:00;;;;;;;8.48;4.70;;;;;;;20.95;59.94;94253.44;5003593;28;20212;-75
2022/07/27 02:32:28;;;;;;;9.43;5.20;;;;;;;20.90;60.30;94256.66;4999777;28;20652;-74
2022/07/27 02:34:55;;;;;;;9.02;5.15;;;;;;;20.88;60.38;94253.50;5013261;28;20686;-75
2022/07/27 02:37:22;;;;;;;8.48;5.32;;;;;;;20.80;62.30;94257.47;5012980;28;20569;-74
2022/07/27 02:39:49;;;;;;;8.23;5.57;;;;;;;20.77;62.46;94252.78;5012556;28;20209;-74
2022/07/27 02:42:16;;;;;;;8.57;5.22;;;;;;;20.68;61.88;94257.94;5007481;28;20232;-74
2022/07/27 02:44:42;;;;;;;9.20;5.47;;;;;;;20.54;63.20;94262.31;5004749;28;20638;-75
2022/07/27 02:47:09;;;;;;;10.70;6.80;;;;;;;20.71;63.06;94259.88;5006978;28;20197;-75
2022/07/27 02:49:38;;;;;;;12.52;5.05;;;;;;;20.72;62.93;94261.47;5004595;28;20202;-75
2022/07/27 02:52:06;;;;;;;8.35;5.65;;;;;;;20.57;62.59;94261.53;4998817;28;20628;-75
2022/07/27 02:54:33;;;;;;;6.90;5.13;;;;;;;20.61;62.32;94266.22;5000317;28;20237;-76
2022/07/27 02:57:03;;;;;;;9.38;5.72;;;;;;;20.44;62.92;94260.41;5005825;28;20688;-76
2022/07/27 02:59:30;;;;;;;15.40;6.05;;;;;;;20.51;62.39;94263.09;5005916;28;20239;-75
2022/07/27 03:01:57;;;;;;;11.63;5.75;;;;;;;20.51;62.55;94268.63;4998889;28;20224;-74
2022/07/27 03:04:24;;;;;;;7.95;4.60;;;;;;;20.52;63.00;94275.69;4998477;28;20292;-74
2022/07/27 03:06:52;;;;;;;8.05;5.03;;;;;;;20.55;63.82;94274.91;5004826;28;20229;-75
2022/07/27 03:09:19;;;;;;;10.32;5.03;;;;;;;20.58;62.74;94284.31;5004863;28;20216;-74
2022/07/27 03:11:46;;;;;;;8.93;5.00;;;;;;;20.45;62.86;94285.94;5011925;28;20619;-74
2022/07/27 03:14:13;;;;;;;8.43;5.07;;;;;;;20.39;62.62;94282.81;4998340;28;20210;-75
2022/07/27 03:16:39;;;;;;;8.55;5.63;;;;;;;20.44;62.89;94285.16;5004662;28;20210;-75
2022/07/27 03:19:06;;;;;;;9.05;5.13;;;;;;;20.55;62.79;94291.41;5006013;28;20209;-75
2022/07/27 03:21:33;;;;;;;8.77;5.68;;;;;;;20.63;62.78;94289.44;5005010;28;20609;-75
2022/07/27 03:24:01;;;;;;;6.45;4.68;;;;;;;20.77;61.92;94285.81;5005011;28;20705;-74
2022/07/27 03:26:29;;;;;;;9.23;5.65;;;;;;;20.92;61.85;94290.06;4999953;28;20201;-74
2022/07/27 03:28:56;;;;;;;10.10;5.57;;;;;;;20.79;62.13;94288.94;4998687;28;20206;-74
2022/07/27 03:31:23;;;;;;;6.60;4.93;;;;;;;21.01;61.70;94284.91;5003694;28;20210;-74
2022/07/27 03:33:50;;;;;;;8.77;5.30;;;;;;;21.41;61.88;94285.47;5005012;28;20259;-76
2022/07/27 03:36:17;;;;;;;10.90;5.90;;;;;;;21.86;61.01;94284.31;4999466;28;20205;-76
2022/07/27 03:38:43;;;;;;;9.23;5.90;;;;;;;22.44;58.60;94274.25;5011298;28;20283;-75
2022/07/27 03:41:11;;;;;;;10.32;8.00;;;;;;;22.86;55.88;94272.19;5011515;28;20660;-76
2022/07/27 03:43:38;;;;;;;9.35;5.82;;;;;;;22.52;57.45;94273.00;4997963;28;20255;-74
2022/07/27 03:46:05;;;;;;;7.45;5.28;;;;;;;22.78;57.01;94276.25;5001534;28;20660;-76
2022/07/27 03:48:32;;;;;;;11.45;8.13;;;;;;;23.33;56.83;94273.91;5004810;28;20252;-75
2022/07/27 03:50:59;;;;;;;9.35;6.20;;;;;;;23.78;55.49;94276.38;5001273;28;20267;-74
2022/07/27 03:53:26;;;;;;;10.52;8.63;;;;;;;24.71;53.23;94281.81;4997971;28;20204;-74
2022/07/27 03:55:52;;;;;;;12.55;7.93;;;;;;;24.88;52.19;94279.09;5001679;28;20202;-74
2022/07/27 03:58:22;;;;;;;10.55;8.57;;;;;;;25.17;51.35;94280.09;5005038;28;20280;-74
2022/07/27 04:00:49;;;;;;;18.42;10.55;;;;;;;26.34;48.95;94271.75;5001554;28;20221;-74
2022/07/27 04:03:17;;;;;;;10.10;8.15;;;;;;;26.80;47.57;94273.25;4998291;28;20325;-75
2022/07/27 04:05:44;;;;;;;11.77;9.15;;;;;;;27.25;46.55;94272.34;4999098;28;20524;-75
2022/07/27 04:08:11;;;;;;;9.98;7.95;;;;;;;27.96;44.46;94270.13;5004868;28;20230;-75
2022/07/27 04:10:37;;;;;;;10.50;8.50;;;;;;;27.92;44.51;94269.47;5002284;28;20271;-77
2022/07/27 04:13:04;;;;;;;13.48;8.77;;;;;;;28.68;42.52;94268.50;5010915;28;20224;-78
2022/07/27 04:15:32;;;;;;;11.68;8.65;;;;;;;29.43;41.67;94267.31;5010200;28;20436;-75
2022/07/27 04:17:59;;;;;;;11.93;8.82;;;;;;;30.23;40.20;94267.28;5006149;28;20226;-76
2022/07/27 04:20:26;;;;;;;7.97;6.95;;;;;;;29.78;41.62;94275.53;5002089;28;20205;-78
2022/07/27 04:22:53;;;;;;;10.75;7.47;;;;;;;30.64;40.34;94268.72;5010514;28;20209;-75
2022/07/27 04:25:20;;;;;;;10.48;7.55;;;;;;;31.67;38.21;94269.69;5010599;28;20205;-74
2022/07/27 04:27:47;;;;;;;11.18;7.63;;;;;;;31.59;36.76;94271.22;5005291;28;20205;-75
2022/07/27 04:30:15;;;;;;;9.15;7.20;;;;;;;31.98;34.79;94277.78;5002019;28;20247;-75
2022/07/27 04:32:43;;;;;;;11.70;8.40;;;;;;;32.06;35.41;94272.59;5004102;28;20769;-75
2022/07/27 04:35:10;;;;;;;10.25;7.38;;;;;;;31.91;36.10;94268.94;5001590;28;20197;-74
2022/07/27 04:37:37;;;;;;;9.98;6.93;;;;;;;32.16;34.99;94271.28;4996744;28;20221;-74
2022/07/27 04:40:06;;;;;;;7.18;5.07;;;;;;;29.80;38.92;94289.78;5009860;28;20243;-76
2022/07/27 04:42:33;;;;;;;9.93;6.00;;;;;;;30.07;39.23;94292.69;5012689;28;20256;-75
2022/07/27 04:45:00;;;;;;;10.85;4.93;;;;;;;29.55;39.62;94290.78;5015376;28;20264;-74
2022/07/27 04:47:26;;;;;;;5.38;4.57;;;;;;;29.58;40.22;94296.22;5010436;28;20722;-74
2022/07/27 04:49:55;;;;;;;10.95;5.18;;;;;;;29.95;39.95;94290.78;4997310;28;20264;-75
2022/07/27 04:52:22;;;;;;;6.10;4.70;;;;;;;29.70;40.64;94298.13;5010676;28;20205;-74
2022/07/27 04:54:51;;;;;;;9.90;4.78;;;;;;;29.09;41.22;94309.28;4997245;28;20201;-74
2022/07/27 04:57:18;;;;;;;7.10;4.80;;;;;;;29.07;41.30;94311.72;5001533;28;20268;-74
2022/07/27 04:59:45;;;;;;;7.18;4.95;;;;;;;27.97;43.85;94321.03;5004237;28;20290;-73
2022/07/27 05:02:12;;;;;;;5.97;4.50;;;;;;;27.28;45.24;94318.78;5000111;28;20205;-77
2022/07/27 05:04:39;;;;;;;6.45;4.78;;;;;;;27.75;45.07;94327.28;4997024;28;20240;-76
2022/07/27 05:07:07;;;;;;;5.95;5.00;;;;;;;28.69;42.70;94320.25;5001125;28;20202;-76
2022/07/27 05:09:34;;;;;;;7.22;4.80;;;;;;;28.21;43.79;94330.63;5003718;28;20680;-74
2022/07/27 05:12:01;;;;;;;11.25;5.15;;;;;;;27.83;44.35;94325.06;5001000;28;20384;-74
2022/07/27 05:14:27;;;;;;;6.85;5.03;;;;;;;25.57;50.13;94329.91;5010135;28;20205;-75
2022/07/27 05:16:54;;;;;;;6.60;4.82;;;;;;;26.22;49.16;94341.09;5009986;28;20209;-74
2022/07/27 05:19:21;;;;;;;6.95;4.72;;;;;;;27.03;46.74;94321.50;4996334;28;20845;-75
2022/07/27 05:21:48;;;;;;;6.47;4.72;;;;;;;27.68;45.51;94321.94;4999907;28;20201;-74
2022/07/27 05:24:16;;;;;;;6.10;4.68;;;;;;;28.30;44.46;94328.69;5003658;28;20612;-74
2022/07/27 05:26:43;;;;;;;6.97;4.65;;;;;;;28.40;43.87;94323.22;5000887;28;20205;-77
2022/07/27 05:29:11;;;;;;;8.35;5.10;;;;;;;28.46;43.63;94327.78;5009580;28;20615;-78
2022/07/27 05:31:37;;;;;;;10.80;5.53;;;;;;;28.84;43.59;94332.47;4999370;28;20293;-75
2022/07/27 05:34:04;;;;;;;5.95;5.00;;;;;;;29.60;42.19;94332.06;5007412;28;20221;-75
2022/07/27 05:36:31;;;;;;;6.95;5.47;;;;;;;30.78;39.83;94323.28;5003221;28;20209;-73
2022/07/27 05:38:58;;;;;;;8.93;4.65;;;;;;;29.43;42.34;94323.13;5005389;28;20650;-74
2022/07/27 05:41:27;;;;;;;8.77;4.53;;;;;;;28.09;45.00;94334.97;5011000;28;20189;-77
2022/07/27 05:43:55;;;;;;;8.93;5.68;;;;;;;28.95;44.31;94330.88;5013806;28;20572;-77
2022/07/27 05:46:22;;;;;;;8.15;4.90;;;;;;;30.38;40.67;94318.53;5000927;28;20209;-84
2022/07/27 05:48:49;;;;;;;6.25;5.15;;;;;;;30.06;41.48;94330.28;5006931;28;20261;-75
2022/07/27 05:51:16;;;;;;;7.78;5.57;;;;;;;30.66;40.36;94333.38;5004940;28;20680;-72
2022/07/27 05:53:43;;;;;;;7.00;4.40;;;;;;;28.98;43.31;94338.31;5013299;28;20704;-73
2022/07/27 05:56:10;;;;;;;7.07;5.32;;;;;;;29.19;43.26;94327.63;5011431;28;20205;-80
2022/07/27 05:58:38;;;;;;;7.70;5.35;;;;;;;30.09;42.61;94329.34;5012691;28;20328;-74
2022/07/27 06:01:05;;;;;;;12.45;5.57;;;;;;;31.81;38.96;94323.50;5009905;28;20271;-74
2022/07/27 06:03:32;;;;;;;7.72;5.20;;;;;;;33.31;36.38;94331.63;4999679;28;20205;-73
2022/07/27 06:08:39;;;;;;;9.63;5.60;;;;;;;31.74;38.38;94324.59;4990945;28;20287;-77
2022/07/27 06:11:13;;;;;;;7.00;5.00;;;;;;;30.85;39.76;94334.16;5015056;28;20208;-76
2022/07/27 06:13:41;;;;;;;8.80;5.57;;;;;;;32.01;37.51;94318.09;5013604;28;20232;-73
2022/07/27 06:16:08;;;;;;;7.82;5.45;;;;;;;32.99;36.57;94319.22;5000119;28;20213;-73
2022/07/27 06:18:35;;;;;;;6.95;5.43;;;;;;;34.38;34.86;94318.84;5003414;28;20229;-78
2022/07/27 06:21:01;;;;;;;7.78;6.07;;;;;;;33.26;35.78;94333.06;5010264;28;20212;-75
2022/07/27 06:23:28;;;;;;;9.15;5.68;;;;;;;33.62;35.64;94326.31;5002751;28;20217;-73
2022/07/27 06:25:56;;;;;;;8.45;5.65;;;;;;;33.13;36.21;94327.69;5006007;28;20209;-74
2022/07/27 06:28:23;;;;;;;10.23;5.82;;;;;;;34.05;34.54;94326.75;5003712;28;20209;-73
2022/07/27 06:30:52;;;;;;;9.77;5.22;;;;;;;34.02;35.05;94316.50;4999310;28;20579;-74
2022/07/27 06:33:26;;;;;;;7.93;5.22;;;;;;;34.35;33.53;94331.09;5008568;28;20204;-74
2022/07/27 06:35:54;;;;;;;8.93;5.60;;;;;;;34.40;34.21;94333.22;4994417;28;20293;-73
2022/07/27 06:38:21;;;;;;;9.65;5.57;;;;;;;33.26;35.83;94335.09;5012914;28;20257;-74
2022/07/27 06:40:51;;;;;;;7.53;5.32;;;;;;;32.58;37.24;94346.94;5009231;28;20206;-73
2022/07/27 06:43:23;;;;;;;9.10;6.28;;;;;;;34.28;34.32;94337.13;5016521;28;20197;-74
2022/07/27 06:45:53;;;;;;;6.95;5.90;;;;;;;33.45;35.94;94333.66;5000250;28;20204;-73
2022/07/27 06:48:20;;;;;;;6.93;5.47;;;;;;;33.59;36.25;94343.38;5003467;28;20680;-73
2022/07/27 06:50:48;;;;;;;7.80;5.43;;;;;;;34.25;34.76;94338.06;5012399;28;20568;-72
2022/07/27 06:53:15;;;;;;;11.70;5.80;;;;;;;35.08;33.62;94330.03;4999631;28;20803;-73
2022/07/27 06:55:42;;;;;;;9.07;5.70;;;;;;;35.71;32.67;94330.19;5012831;28;20208;-73
2022/07/27 06:58:08;;;;;;;9.23;5.85;;;;;;;35.94;31.94;94334.78;5011872;28;20239;-75
2022/07/27 07:00:36;;;;;;;7.43;5.43;;;;;;;31.48;39.02;94335.38;5004099;28;20339;-73
2022/07/27 07:03:05;;;;;;;6.20;5.38;;;;;;;32.52;37.58;94332.03;5005996;28;20279;-73
2022/07/27 07:05:41;;;;;;;10.13;4.93;;;;;;;32.90;37.29;94336.94;5002504;28;20251;-74
2022/07/27 07:08:10;;;;;;;6.88;5.43;;;;;;;34.37;34.25;94328.56;5010831;28;20266;-73
2022/07/27 07:10:38;;;;;;;9.25;5.28;;;;;;;35.34;32.80;94324.44;5012202;28;20205;-73
2022/07/27 07:13:06;;;;;;;5.68;4.95;;;;;;;36.08;31.40;94315.41;5006812;28;20699;-73
2022/07/27 07:15:34;;;;;;;6.10;5.45;;;;;;;37.07;30.21;94316.47;5005127;28;20546;-73
2022/07/27 07:18:02;;;;;;;6.60;5.45;;;;;;;35.62;31.74;94310.63;5010956;28;20270;-73
2022/07/27 07:20:31;;;;;;;9.73;5.35;;;;;;;34.75;33.15;94335.19;4998245;28;20260;-74
2022/07/27 07:22:57;;;;;;;7.55;5.25;;;;;;;34.58;32.75;94330.13;4998702;28;20205;-73
2022/07/27 07:25:25;;;;;;;5.57;4.75;;;;;;;34.09;32.78;94324.53;5011795;28;20759;-74
2022/07/27 07:27:52;;;;;;;8.07;5.80;;;;;;;33.85;34.05;94322.63;4998918;28;20205;-74
2022/07/27 07:30:20;;;;;;;9.80;5.85;;;;;;;34.24;32.88;94322.47;4998161;28;20280;-73
2022/07/27 07:32:46;;;;;;;7.53;5.72;;;;;;;35.45;32.14;94316.09;5011960;28;20212;-74
2022/07/27 07:35:14;;;;;;;6.00;4.95;;;;;;;33.50;34.46;94325.31;4998372;28;20730;-74
2022/07/27 07:37:42;;;;;;;6.45;5.40;;;;;;;33.03;35.35;94320.59;5011191;28;20663;-73
2022/07/27 07:40:10;;;;;;;6.05;5.30;;;;;;;34.05;33.88;94318.31;5011592;28;20228;-74
2022/07/27 07:42:48;;;;;;;8.23;5.47;;;;;;;35.66;32.06;94308.38;5010911;28;20213;-74
2022/07/27 07:45:16;;;;;;;10.05;5.60;;;;;;;35.67;31.05;94312.72;5008947;28;20706;-74
2022/07/27 07:47:43;;;;;;;7.20;5.82;;;;;;;35.14;32.69;94311.13;5000882;28;20208;-75
2022/07/27 07:50:10;;;;;;;6.40;4.97;;;;;;;34.65;33.57;94308.47;4998053;28;20256;-75
2022/07/27 07:52:37;;;;;;;9.60;5.63;;;;;;;35.22;31.88;94311.47;5002026;28;20669;-74
2022/07/27 07:55:06;;;;;;;8.65;5.72;;;;;;;35.36;30.42;94315.50;5004401;28;20236;-74
2022/07/27 07:57:33;;;;;;;9.52;5.97;;;;;;;35.96;30.71;94301.19;5001245;28;20209;-74
2022/07/27 08:00:00;;;;;;;8.75;5.43;;;;;;;36.08;30.52;94306.94;4997244;28;20233;-74
2022/07/27 08:02:27;;;;;;;6.75;5.80;;;;;;;35.13;31.25;94320.06;5000725;28;20818;-73
2022/07/27 08:04:54;;;;;;;9.38;5.78;;;;;;;34.99;30.38;94321.72;5007871;28;20236;-74
2022/07/27 08:07:20;;;;;;;7.53;5.43;;;;;;;35.27;30.91;94320.00;5010967;28;20545;-72
2022/07/27 08:09:47;;;;;;;7.00;5.22;;;;;;;34.69;31.90;94314.66;4998134;28;20664;-73
2022/07/27 08:12:15;;;;;;;10.23;5.57;;;;;;;33.72;33.35;94319.31;5001468;28;20216;-73
2022/07/27 08:14:42;;;;;;;7.10;5.65;;;;;;;32.21;35.46;94321.16;5006225;28;20614;-74
2022/07/27 08:17:09;;;;;;;7.03;5.88;;;;;;;32.31;35.43;94322.66;5006776;28;20200;-75
2022/07/27 08:19:36;;;;;;;8.60;6.03;;;;;;;32.75;34.79;94322.09;5001751;28;20267;-77
2022/07/27 08:22:03;;;;;;;8.73;6.20;;;;;;;32.88;34.80;94319.78;5002373;28;20205;-75
2022/07/27 08:24:30;;;;;;;10.52;5.90;;;;;;;33.94;33.48;94312.53;5008699;28;20676;-73
2022/07/27 08:26:57;;;;;;;8.43;5.85;;;;;;;33.25;34.62;94314.66;5011418;28;20213;-73
2022/07/27 08:29:25;;;;;;;9.85;5.65;;;;;;;32.97;33.47;94316.91;5011330;28;20205;-74
2022/07/27 08:31:52;;;;;;;7.90;6.25;;;;;;;32.62;34.47;94316.69;5010940;28;20618;-72
2022/07/27 08:34:19;;;;;;;8.05;5.93;;;;;;;33.65;33.09;94302.84;5010697;28;20209;-72
2022/07/27 08:36:46;;;;;;;9.95;5.53;;;;;;;33.26;33.80;94304.97;5011069;28;20283;-72
2022/07/27 08:39:13;;;;;;;7.50;5.95;;;;;;;32.36;34.69;94307.97;5010855;28;20228;-73
2022/07/27 08:41:41;;;;;;;10.70;5.75;;;;;;;32.45;33.97;94305.09;5011069;28;20209;-74
2022/07/27 08:44:12;;;;;;;10.50;6.15;;;;;;;31.69;35.74;94306.41;4997194;28;20288;-73
2022/07/27 08:46:45;;;;;;;12.35;6.35;;;;;;;30.78;36.75;94312.09;5010186;28;20643;-74
2022/07/27 08:49:13;;;;;;;9.30;5.78;;;;;;;30.64;37.55;94309.91;5010789;28;20205;-73
2022/07/27 08:51:39;;;;;;;9.95;5.78;;;;;;;31.18;36.46;94302.75;5008479;28;20267;-73
2022/07/27 08:54:07;;;;;;;12.15;5.80;;;;;;;31.74;35.81;94297.34;4999018;28;20260;-73
2022/07/27 08:56:34;;;;;;;8.32;5.43;;;;;;;31.92;34.73;94290.91;4997394;28;20201;-73
2022/07/27 08:59:01;;;;;;;8.20;5.30;;;;;;;32.37;33.87;94298.31;5001521;28;20233;-72
2022/07/27 09:01:31;;;;;;;6.43;5.18;;;;;;;32.17;34.94;94289.66;5003996;28;20200;-72
2022/07/27 09:03:59;;;;;;;5.95;5.35;;;;;;;32.96;32.74;94287.28;4999785;28;20319;-73
2022/07/27 09:06:48;;;;;;;12.45;6.38;;;;;;;32.69;32.72;94284.66;4998533;28;20315;-72
2022/07/27 09:09:17;;;;;;;7.40;5.75;;;;;;;32.68;32.94;94280.31;4997013;28;20259;-72
2022/07/27 09:12:01;;;;;;;8.35;5.82;;;;;;;33.19;33.35;94272.41;5001140;28;20209;-73
2022/07/27 09:14:31;;;;;;;6.53;5.75;;;;;;;33.43;33.07;94274.38;5012165;28;20599;-73
2022/07/27 09:16:58;;;;;;;8.68;5.57;;;;;;;33.81;32.37;94277.06;5003385;28;20201;-72
2022/07/27 09:19:26;;;;;;;8.73;6.15;;;;;;;32.69;33.35;94279.06;5000802;28;20237;-72
2022/07/27 09:21:53;;;;;;;6.50;5.68;;;;;;;32.54;33.54;94278.22;5004534;28;20209;-72
2022/07/27 09:24:21;;;;;;;11.10;5.90;;;;;;;32.76;33.35;94267.50;5007762;28;20206;-73
2022/07/27 09:26:48;;;;;;;7.18;5.53;;;;;;;32.52;33.51;94280.78;5004617;28;20373;-73
2022/07/27 09:29:16;;;;;;;9.98;5.88;;;;;;;32.78;33.64;94271.41;5000644;28;20260;-74
2022/07/27 09:31:46;;;;;;;9.13;6.00;;;;;;;32.08;33.86;94275.72;5014040;28;20255;-73
2022/07/27 09:34:26;;;;;;;9.90;6.22;;;;;;;31.69;34.43;94284.00;5000561;28;20212;-73
2022/07/27 09:36:57;;;;;;;9.20;5.75;;;;;;;32.24;32.84;94278.16;5001314;28;20194;-72
2022/07/27 09:39:27;;;;;;;8.35;6.32;;;;;;;32.44;33.27;94275.50;5013498;28;20957;-73
2022/07/27 09:41:55;;;;;;;7.45;5.97;;;;;;;32.69;32.34;94267.84;5013354;28;20208;-72
2022/07/27 09:44:33;;;;;;;7.05;5.60;;;;;;;33.15;31.45;94271.81;5013305;28;20216;-72
2022/07/27 09:47:00;;;;;;;9.43;5.72;;;;;;;33.83;30.89;94268.94;5009346;28;20231;-70
2022/07/27 09:49:29;;;;;;;7.55;6.50;;;;;;;34.29;31.16;94259.94;5003911;28;20209;-70
2022/07/27 09:51:59;;;;;;;7.50;6.13;;;;;;;34.04;30.62;94260.53;5013263;28;20271;-69
2022/07/27 09:54:26;;;;;;;6.32;5.60;;;;;;;34.47;30.17;94264.50;5001655;28;20213;-71
2022/07/27 09:57:01;;;;;;;9.20;6.25;;;;;;;34.63;31.15;94254.72;5011990;28;20204;-74
2022/07/27 09:59:29;;;;;;;10.05;6.38;;;;;;;34.72;29.83;94254.56;5012617;28;20324;-71
2022/07/27 10:01:56;;;;;;;8.02;6.35;;;;;;;34.62;29.70;94247.53;4999794;28;20215;-70
2022/07/27 10:04:24;;;;;;;8.40;6.18;;;;;;;34.40;30.33;94254.44;5012703;28;20287;-71
2022/07/27 10:06:52;;;;;;;12.27;7.85;;;;;;;34.79;29.45;94246.50;5000196;28;20263;-72
2022/07/27 10:09:20;;;;;;;8.55;6.60;;;;;;;34.40;29.91;94243.19;5012543;28;21070;-72
2022/07/27 10:11:48;;;;;;;6.68;5.95;;;;;;;34.13;29.52;94249.19;5000403;28;20300;-74
2022/07/27 10:14:15;;;;;;;8.57;7.13;;;;;;;33.83;29.55;94238.03;5012096;28;20201;-74
2022/07/27 10:16:43;;;;;;;8.52;6.45;;;;;;;34.15;29.39;94244.63;5001110;28;20208;-72
2022/07/27 10:19:15;;;;;;;12.05;6.32;;;;;;;34.49;29.73;94240.22;4998525;28;20682;-72
2022/07/27 10:21:46;;;;;;;7.97;6.13;;;;;;;34.80;29.15;94236.00;5004618;28;20197;-72
2022/07/27 10:24:28;;;;;;;8.65;6.10;;;;;;;35.01;30.40;94240.31;5006432;28;20259;-71
2022/07/27 10:26:55;;;;;;;8.18;6.60;;;;;;;34.84;27.74;94247.84;5004376;28;20205;-70
2022/07/27 10:29:23;;;;;;;8.18;6.22;;;;;;;33.72;29.31;94246.25;5012372;28;20216;-71
2022/07/27 10:31:58;;;;;;;9.10;6.38;;;;;;;33.06;30.03;94241.03;5012728;28;20268;-71
2022/07/27 10:34:36;;;;;;;8.98;6.20;;;;;;;33.61;30.29;94234.06;5006791;28;20209;-71
2022/07/27 10:37:11;;;;;;;6.43;5.60;;;;;;;34.28;29.49;94230.25;5006742;28;20599;-71
2022/07/27 10:39:41;;;;;;;7.35;6.07;;;;;;;34.63;28.43;94226.56;5011690;28;20671;-72
2022/07/27 10:42:26;;;;;;;7.82;6.25;;;;;;;34.23;28.84;94222.47;5012411;28;20300;-72
2022/07/27 10:45:02;;;;;;;7.72;6.57;;;;;;;34.09;29.29;94226.13;5005725;28;20197;-73
2022/07/27 10:47:35;;;;;;;7.57;6.32;;;;;;;34.34;29.77;94228.25;5000090;28;20197;-74
2022/07/27 10:50:21;;;;;;;10.88;6.40;;;;;;;33.47;30.31;94230.03;5010428;28;20252;-72
2022/07/27 10:52:50;;;;;;;8.85;6.45;;;;;;;32.73;30.69;94226.38;5003279;28;20205;-73
2022/07/27 10:55:44;;;;;;;8.50;6.78;;;;;;;32.57;31.27;94226.78;4998334;28;20256;-70
2022/07/27 10:58:50;;;;;;;7.47;6.55;;;;;;;33.00;30.45;94209.28;4998591;28;20229;-73
2022/07/27 11:01:18;;;;;;;9.25;6.85;;;;;;;33.64;30.30;94217.00;4998948;28;20275;-74
2022/07/27 11:03:55;;;;;;;9.60;6.68;;;;;;;33.69;30.93;94213.50;5011939;28;20860;-74
2022/07/27 11:06:30;;;;;;;8.50;6.70;;;;;;;34.00;29.10;94203.75;4998940;28;20207;-74
2022/07/27 11:09:00;;;;;;;7.60;6.07;;;;;;;33.73;29.47;94202.84;5012067;28;20636;-72
2022/07/27 11:11:29;;;;;;;10.05;6.30;;;;;;;33.29;30.77;94207.75;4998495;28;20686;-73
2022/07/27 11:13:58;;;;;;;7.88;6.10;;;;;;;33.66;29.56;94203.22;5012173;28;20259;-73
2022/07/27 11:16:28;;;;;;;7.60;6.32;;;;;;;33.85;29.32;94201.78;5011529;28;20571;-71
2022/07/27 11:19:02;;;;;;;8.75;6.57;;;;;;;34.13;29.17;94201.38;5011962;28;20213;-71
2022/07/27 11:21:31;;;;;;;8.23;6.65;;;;;;;34.36;28.49;94194.78;4998240;28;20220;-72
2022/07/27 11:24:01;;;;;;;8.40;6.70;;;;;;;34.44;28.68;94189.53;5011063;28;20618;-73
2022/07/27 11:26:31;;;;;;;8.18;6.32;;;;;;;34.67;28.84;94182.09;4999315;28;20610;-73
2022/07/27 11:28:58;;;;;;;11.20;7.20;;;;;;;34.56;28.48;94180.72;4997960;28;20198;-73
2022/07/27 11:31:25;;;;;;;9.63;6.53;;;;;;;34.26;29.72;94182.13;5003557;28;20217;-73
2022/07/27 11:33:55;;;;;;;9.15;6.45;;;;;;;34.51;28.92;94175.78;5005204;28;20205;-74
2022/07/27 11:36:23;;;;;;;9.25;6.63;;;;;;;34.36;29.41;94180.72;5001115;28;20189;-73
2022/07/27 11:38:53;;;;;;;8.32;6.63;;;;;;;34.64;28.32;94177.47;5011354;28;20355;-73
2022/07/27 11:41:25;;;;;;;9.73;6.60;;;;;;;34.59;28.50;94171.25;5011177;28;20236;-72